sensor_id;sensor_type;location;lat;lon;timestamp;P1;durP1;ratioP1;P2;durP2;ratioP2
15402;SDS011;7799;53.478;10.170;2023-05-15T00:00:07;1.10;;;1.00;;
15402;SDS011;7799;53.478;10.170;2023-05-15T00:02:41;1.00;;;0.90;;
15402;SDS011;7799;53.478;10.170;2023-05-15T00:05:08;0.80;;;0.80;;
15402;SDS011;7799;53.478;10.170;2023-05-15T00:07:36;0.70;;;0.70;;
15402;SDS011;7799;53.478;10.170;2023-05-15T00:10:03;0.80;;;0.80;;
15402;SDS011;7799;53.478;10.170;2023-05-15T00:12:30;0.70;;;0.70;;
15402;SDS011;7799;53.478;10.170;2023-05-15T00:14:58;0.97;;;0.97;;
15402;SDS011;7799;53.478;10.170;2023-05-15T00:17:25;0.80;;;0.80;;
15402;SDS011;7799;53.478;10.170;2023-05-15T00:19:51;0.90;;;0.80;;
15402;SDS011;7799;53.478;10.170;2023-05-15T00:22:21;0.80;;;0.80;;
15402;SDS011;7799;53.478;10.170;2023-05-15T00:24:48;0.80;;;0.80;;
15402;SDS011;7799;53.478;10.170;2023-05-15T00:27:14;0.80;;;0.80;;
15402;SDS011;7799;53.478;10.170;2023-05-15T00:29:41;0.80;;;0.73;;
15402;SDS011;7799;53.478;10.170;2023-05-15T00:32:09;0.90;;;0.90;;
15402;SDS011;7799;53.478;10.170;2023-05-15T00:34:36;0.80;;;0.80;;
15402;SDS011;7799;53.478;10.170;2023-05-15T00:37:02;0.87;;;0.70;;
15402;SDS011;7799;53.478;10.170;2023-05-15T00:39:30;2.17;;;0.73;;
15402;SDS011;7799;53.478;10.170;2023-05-15T00:41:57;0.70;;;0.70;;
15402;SDS011;7799;53.478;10.170;2023-05-15T00:44:25;0.70;;;0.70;;
15402;SDS011;7799;53.478;10.170;2023-05-15T00:46:53;0.93;;;0.67;;
15402;SDS011;7799;53.478;10.170;2023-05-15T00:49:21;0.70;;;0.70;;
15402;SDS011;7799;53.478;10.170;2023-05-15T00:51:51;0.87;;;0.87;;
15402;SDS011;7799;53.478;10.170;2023-05-15T00:54:18;0.80;;;0.80;;
15402;SDS011;7799;53.478;10.170;2023-05-15T00:56:44;0.90;;;0.90;;
15402;SDS011;7799;53.478;10.170;2023-05-15T00:59:14;0.83;;;0.83;;
15402;SDS011;7799;53.478;10.170;2023-05-15T01:01:41;0.90;;;0.90;;
15402;SDS011;7799;53.478;10.170;2023-05-15T01:04:10;1.00;;;0.90;;
15402;SDS011;7799;53.478;10.170;2023-05-15T01:06:38;0.70;;;0.70;;
15402;SDS011;7799;53.478;10.170;2023-05-15T01:09:05;0.80;;;0.80;;
15402;SDS011;7799;53.478;10.170;2023-05-15T01:11:32;0.97;;;0.90;;
15402;SDS011;7799;53.478;10.170;2023-05-15T01:14:02;0.70;;;0.70;;
15402;SDS011;7799;53.478;10.170;2023-05-15T01:16:31;0.80;;;0.80;;
15402;SDS011;7799;53.478;10.170;2023-05-15T01:19:00;0.73;;;0.73;;
15402;SDS011;7799;53.478;10.170;2023-05-15T01:21:35;0.73;;;0.73;;
15402;SDS011;7799;53.478;10.170;2023-05-15T01:24:17;0.80;;;0.80;;
15402;SDS011;7799;53.478;10.170;2023-05-15T01:27:06;0.83;;;0.83;;
15402;SDS011;7799;53.478;10.170;2023-05-15T01:29:46;0.73;;;0.70;;
15402;SDS011;7799;53.478;10.170;2023-05-15T01:32:20;0.90;;;0.90;;
15402;SDS011;7799;53.478;10.170;2023-05-15T01:34:51;1.20;;;1.00;;
15402;SDS011;7799;53.478;10.170;2023-05-15T01:37:23;0.90;;;0.90;;
15402;SDS011;7799;53.478;10.170;2023-05-15T01:39:51;1.10;;;1.00;;
15402;SDS011;7799;53.478;10.170;2023-05-15T01:42:20;0.70;;;0.70;;
15402;SDS011;7799;53.478;10.170;2023-05-15T01:44:50;0.80;;;0.80;;
15402;SDS011;7799;53.478;10.170;2023-05-15T01:47:20;0.90;;;0.90;;
15402;SDS011;7799;53.478;10.170;2023-05-15T01:49:48;1.67;;;1.23;;
15402;SDS011;7799;53.478;10.170;2023-05-15T01:52:16;1.30;;;1.20;;
15402;SDS011;7799;53.478;10.170;2023-05-15T01:54:46;1.00;;;0.90;;
15402;SDS011;7799;53.478;10.170;2023-05-15T01:57:14;1.13;;;1.03;;
15402;SDS011;7799;53.478;10.170;2023-05-15T01:59:44;1.00;;;1.00;;
15402;SDS011;7799;53.478;10.170;2023-05-15T02:02:11;0.90;;;0.90;;
15402;SDS011;7799;53.478;10.170;2023-05-15T02:04:38;1.10;;;1.00;;
15402;SDS011;7799;53.478;10.170;2023-05-15T02:07:05;0.73;;;0.73;;
15402;SDS011;7799;53.478;10.170;2023-05-15T02:09:32;0.70;;;0.67;;
15402;SDS011;7799;53.478;10.170;2023-05-15T02:12:00;0.80;;;0.80;;
15402;SDS011;7799;53.478;10.170;2023-05-15T02:14:28;1.13;;;1.00;;
15402;SDS011;7799;53.478;10.170;2023-05-15T02:16:56;1.00;;;0.90;;
15402;SDS011;7799;53.478;10.170;2023-05-15T02:19:23;0.93;;;0.90;;
15402;SDS011;7799;53.478;10.170;2023-05-15T02:21:50;0.93;;;0.93;;
15402;SDS011;7799;53.478;10.170;2023-05-15T02:24:16;1.30;;;1.10;;
15402;SDS011;7799;53.478;10.170;2023-05-15T02:26:45;0.80;;;0.80;;
15402;SDS011;7799;53.478;10.170;2023-05-15T02:29:18;0.90;;;0.90;;
15402;SDS011;7799;53.478;10.170;2023-05-15T02:31:47;1.30;;;0.83;;
15402;SDS011;7799;53.478;10.170;2023-05-15T02:34:22;0.80;;;0.80;;
15402;SDS011;7799;53.478;10.170;2023-05-15T02:36:53;1.10;;;1.00;;
15402;SDS011;7799;53.478;10.170;2023-05-15T02:39:21;1.30;;;1.20;;
15402;SDS011;7799;53.478;10.170;2023-05-15T02:41:49;1.17;;;0.90;;
15402;SDS011;7799;53.478;10.170;2023-05-15T02:44:17;1.33;;;1.23;;
15402;SDS011;7799;53.478;10.170;2023-05-15T02:46:44;1.40;;;1.00;;
15402;SDS011;7799;53.478;10.170;2023-05-15T02:49:11;0.90;;;0.90;;
15402;SDS011;7799;53.478;10.170;2023-05-15T02:51:40;1.10;;;1.00;;
15402;SDS011;7799;53.478;10.170;2023-05-15T02:54:07;1.53;;;0.97;;
15402;SDS011;7799;53.478;10.170;2023-05-15T02:56:34;1.07;;;0.97;;
15402;SDS011;7799;53.478;10.170;2023-05-15T02:59:00;1.07;;;1.00;;
15402;SDS011;7799;53.478;10.170;2023-05-15T03:01:27;0.93;;;0.93;;
15402;SDS011;7799;53.478;10.170;2023-05-15T03:03:54;1.20;;;1.00;;
15402;SDS011;7799;53.478;10.170;2023-05-15T03:06:20;1.33;;;1.10;;
15402;SDS011;7799;53.478;10.170;2023-05-15T03:08:48;0.93;;;0.93;;
15402;SDS011;7799;53.478;10.170;2023-05-15T03:11:15;0.90;;;0.90;;
15402;SDS011;7799;53.478;10.170;2023-05-15T03:13:43;0.90;;;0.90;;
15402;SDS011;7799;53.478;10.170;2023-05-15T03:16:09;0.97;;;0.97;;
15402;SDS011;7799;53.478;10.170;2023-05-15T03:18:36;1.27;;;1.20;;
15402;SDS011;7799;53.478;10.170;2023-05-15T03:21:03;0.80;;;0.80;;
15402;SDS011;7799;53.478;10.170;2023-05-15T03:23:30;1.47;;;1.00;;
15402;SDS011;7799;53.478;10.170;2023-05-15T03:25:58;0.87;;;0.87;;
15402;SDS011;7799;53.478;10.170;2023-05-15T03:28:24;1.00;;;1.00;;
15402;SDS011;7799;53.478;10.170;2023-05-15T03:30:51;0.90;;;0.90;;
15402;SDS011;7799;53.478;10.170;2023-05-15T03:33:18;0.93;;;0.93;;
15402;SDS011;7799;53.478;10.170;2023-05-15T03:35:45;0.80;;;0.80;;
15402;SDS011;7799;53.478;10.170;2023-05-15T03:38:13;0.80;;;0.80;;
15402;SDS011;7799;53.478;10.170;2023-05-15T03:40:40;0.70;;;0.70;;
15402;SDS011;7799;53.478;10.170;2023-05-15T03:43:07;1.30;;;1.20;;
15402;SDS011;7799;53.478;10.170;2023-05-15T03:45:34;0.80;;;0.80;;
15402;SDS011;7799;53.478;10.170;2023-05-15T03:48:01;0.97;;;0.90;;
15402;SDS011;7799;53.478;10.170;2023-05-15T03:50:28;1.10;;;0.90;;
15402;SDS011;7799;53.478;10.170;2023-05-15T03:52:57;0.90;;;0.90;;
15402;SDS011;7799;53.478;10.170;2023-05-15T03:55:24;1.10;;;1.10;;
15402;SDS011;7799;53.478;10.170;2023-05-15T03:57:51;1.50;;;1.07;;
15402;SDS011;7799;53.478;10.170;2023-05-15T04:00:23;1.20;;;1.10;;
15402;SDS011;7799;53.478;10.170;2023-05-15T04:02:50;1.27;;;1.17;;
15402;SDS011;7799;53.478;10.170;2023-05-15T04:05:17;1.23;;;1.10;;
15402;SDS011;7799;53.478;10.170;2023-05-15T04:07:46;0.90;;;0.90;;
15402;SDS011;7799;53.478;10.170;2023-05-15T04:10:12;1.37;;;1.27;;
15402;SDS011;7799;53.478;10.170;2023-05-15T04:12:39;1.20;;;1.17;;
15402;SDS011;7799;53.478;10.170;2023-05-15T04:15:13;1.33;;;1.23;;
15402;SDS011;7799;53.478;10.170;2023-05-15T04:17:42;1.03;;;1.00;;
15402;SDS011;7799;53.478;10.170;2023-05-15T04:20:09;1.50;;;1.40;;
15402;SDS011;7799;53.478;10.170;2023-05-15T04:22:38;1.03;;;1.03;;
15402;SDS011;7799;53.478;10.170;2023-05-15T04:25:05;1.10;;;1.00;;
15402;SDS011;7799;53.478;10.170;2023-05-15T04:27:33;0.80;;;0.80;;
15402;SDS011;7799;53.478;10.170;2023-05-15T04:30:00;1.13;;;1.00;;
15402;SDS011;7799;53.478;10.170;2023-05-15T04:32:28;1.10;;;1.00;;
15402;SDS011;7799;53.478;10.170;2023-05-15T04:34:57;1.10;;;1.00;;
15402;SDS011;7799;53.478;10.170;2023-05-15T04:37:23;1.00;;;0.90;;
15402;SDS011;7799;53.478;10.170;2023-05-15T04:39:50;0.97;;;0.97;;
15402;SDS011;7799;53.478;10.170;2023-05-15T04:42:17;1.40;;;1.30;;
15402;SDS011;7799;53.478;10.170;2023-05-15T04:44:43;1.17;;;1.10;;
15402;SDS011;7799;53.478;10.170;2023-05-15T04:47:10;1.37;;;1.27;;
15402;SDS011;7799;53.478;10.170;2023-05-15T04:49:37;1.50;;;1.40;;
15402;SDS011;7799;53.478;10.170;2023-05-15T04:52:05;1.20;;;1.10;;
15402;SDS011;7799;53.478;10.170;2023-05-15T04:54:32;1.00;;;1.00;;
15402;SDS011;7799;53.478;10.170;2023-05-15T04:56:59;1.30;;;1.20;;
15402;SDS011;7799;53.478;10.170;2023-05-15T04:59:25;1.30;;;1.20;;
15402;SDS011;7799;53.478;10.170;2023-05-15T05:01:52;1.40;;;1.30;;
15402;SDS011;7799;53.478;10.170;2023-05-15T05:04:19;1.43;;;1.30;;
15402;SDS011;7799;53.478;10.170;2023-05-15T05:06:46;1.13;;;1.10;;
15402;SDS011;7799;53.478;10.170;2023-05-15T05:09:14;1.30;;;1.20;;
15402;SDS011;7799;53.478;10.170;2023-05-15T05:11:40;1.40;;;1.30;;
15402;SDS011;7799;53.478;10.170;2023-05-15T05:14:07;1.50;;;1.40;;
15402;SDS011;7799;53.478;10.170;2023-05-15T05:16:34;1.70;;;1.60;;
15402;SDS011;7799;53.478;10.170;2023-05-15T05:19:01;1.70;;;1.60;;
15402;SDS011;7799;53.478;10.170;2023-05-15T05:21:27;2.10;;;1.90;;
15402;SDS011;7799;53.478;10.170;2023-05-15T05:23:54;1.90;;;1.80;;
15402;SDS011;7799;53.478;10.170;2023-05-15T05:26:22;2.07;;;1.97;;
15402;SDS011;7799;53.478;10.170;2023-05-15T05:28:49;2.43;;;2.33;;
15402;SDS011;7799;53.478;10.170;2023-05-15T05:31:15;2.13;;;2.00;;
15402;SDS011;7799;53.478;10.170;2023-05-15T05:33:42;2.13;;;2.03;;
15402;SDS011;7799;53.478;10.170;2023-05-15T05:36:09;2.10;;;2.00;;
15402;SDS011;7799;53.478;10.170;2023-05-15T05:38:36;2.43;;;2.30;;
15402;SDS011;7799;53.478;10.170;2023-05-15T05:41:03;2.50;;;2.30;;
15402;SDS011;7799;53.478;10.170;2023-05-15T05:43:31;2.30;;;2.10;;
15402;SDS011;7799;53.478;10.170;2023-05-15T05:45:58;2.10;;;2.00;;
15402;SDS011;7799;53.478;10.170;2023-05-15T05:48:24;1.90;;;1.80;;
15402;SDS011;7799;53.478;10.170;2023-05-15T05:50:51;2.50;;;2.30;;
15402;SDS011;7799;53.478;10.170;2023-05-15T05:53:18;2.30;;;2.20;;
15402;SDS011;7799;53.478;10.170;2023-05-15T05:55:44;2.40;;;2.20;;
15402;SDS011;7799;53.478;10.170;2023-05-15T05:58:12;2.40;;;2.20;;
15402;SDS011;7799;53.478;10.170;2023-05-15T06:00:40;2.70;;;2.50;;
15402;SDS011;7799;53.478;10.170;2023-05-15T06:03:08;3.03;;;2.83;;
15402;SDS011;7799;53.478;10.170;2023-05-15T06:05:34;2.77;;;2.57;;
15402;SDS011;7799;53.478;10.170;2023-05-15T06:08:01;2.90;;;2.70;;
15402;SDS011;7799;53.478;10.170;2023-05-15T06:10:28;3.03;;;2.83;;
15402;SDS011;7799;53.478;10.170;2023-05-15T06:12:55;2.80;;;2.60;;
15402;SDS011;7799;53.478;10.170;2023-05-15T06:15:21;2.77;;;2.57;;
15402;SDS011;7799;53.478;10.170;2023-05-15T06:17:49;2.80;;;2.60;;
15402;SDS011;7799;53.478;10.170;2023-05-15T06:20:16;2.73;;;2.53;;
15402;SDS011;7799;53.478;10.170;2023-05-15T06:22:43;2.60;;;2.40;;
15402;SDS011;7799;53.478;10.170;2023-05-15T06:25:09;2.60;;;2.40;;
15402;SDS011;7799;53.478;10.170;2023-05-15T06:27:39;2.70;;;2.50;;
15402;SDS011;7799;53.478;10.170;2023-05-15T06:30:06;2.80;;;2.60;;
15402;SDS011;7799;53.478;10.170;2023-05-15T06:32:33;2.47;;;2.27;;
15402;SDS011;7799;53.478;10.170;2023-05-15T06:35:01;2.97;;;2.77;;
15402;SDS011;7799;53.478;10.170;2023-05-15T06:37:28;2.30;;;2.20;;
15402;SDS011;7799;53.478;10.170;2023-05-15T06:39:55;2.40;;;2.20;;
15402;SDS011;7799;53.478;10.170;2023-05-15T06:42:22;2.20;;;2.10;;
15402;SDS011;7799;53.478;10.170;2023-05-15T06:44:48;2.53;;;2.33;;
15402;SDS011;7799;53.478;10.170;2023-05-15T06:47:15;2.20;;;2.10;;
15402;SDS011;7799;53.478;10.170;2023-05-15T06:49:42;2.10;;;2.00;;
15402;SDS011;7799;53.478;10.170;2023-05-15T06:52:10;2.40;;;2.20;;
15402;SDS011;7799;53.478;10.170;2023-05-15T06:54:36;2.40;;;2.20;;
15402;SDS011;7799;53.478;10.170;2023-05-15T06:57:04;1.80;;;1.70;;
15402;SDS011;7799;53.478;10.170;2023-05-15T06:59:31;1.93;;;1.83;;
15402;SDS011;7799;53.478;10.170;2023-05-15T07:01:59;1.70;;;1.60;;
15402;SDS011;7799;53.478;10.170;2023-05-15T07:04:26;2.20;;;1.93;;
15402;SDS011;7799;53.478;10.170;2023-05-15T07:06:53;1.70;;;1.60;;
15402;SDS011;7799;53.478;10.170;2023-05-15T07:09:21;2.00;;;1.90;;
15402;SDS011;7799;53.478;10.170;2023-05-15T07:11:48;1.80;;;1.70;;
15402;SDS011;7799;53.478;10.170;2023-05-15T07:14:14;2.10;;;1.90;;
15402;SDS011;7799;53.478;10.170;2023-05-15T07:16:41;2.10;;;2.00;;
15402;SDS011;7799;53.478;10.170;2023-05-15T07:19:08;1.90;;;1.80;;
15402;SDS011;7799;53.478;10.170;2023-05-15T07:21:34;1.60;;;1.50;;
15402;SDS011;7799;53.478;10.170;2023-05-15T07:24:01;1.67;;;1.57;;
15402;SDS011;7799;53.478;10.170;2023-05-15T07:26:29;1.50;;;1.40;;
15402;SDS011;7799;53.478;10.170;2023-05-15T07:28:56;1.77;;;1.67;;
15402;SDS011;7799;53.478;10.170;2023-05-15T07:31:23;1.60;;;1.50;;
15402;SDS011;7799;53.478;10.170;2023-05-15T07:33:50;1.10;;;1.10;;
15402;SDS011;7799;53.478;10.170;2023-05-15T07:36:16;1.20;;;1.10;;
15402;SDS011;7799;53.478;10.170;2023-05-15T07:38:43;1.40;;;1.10;;
15402;SDS011;7799;53.478;10.170;2023-05-15T07:41:10;1.10;;;1.10;;
15402;SDS011;7799;53.478;10.170;2023-05-15T07:43:38;1.00;;;1.00;;
15402;SDS011;7799;53.478;10.170;2023-05-15T07:46:04;1.20;;;1.10;;
15402;SDS011;7799;53.478;10.170;2023-05-15T07:48:31;1.20;;;1.10;;
15402;SDS011;7799;53.478;10.170;2023-05-15T07:50:58;1.10;;;1.00;;
15402;SDS011;7799;53.478;10.170;2023-05-15T07:53:24;1.10;;;1.00;;
15402;SDS011;7799;53.478;10.170;2023-05-15T07:55:51;1.10;;;1.00;;
15402;SDS011;7799;53.478;10.170;2023-05-15T07:58:18;1.50;;;1.33;;
15402;SDS011;7799;53.478;10.170;2023-05-15T08:00:46;0.90;;;0.90;;
15402;SDS011;7799;53.478;10.170;2023-05-15T08:03:12;1.10;;;1.10;;
15402;SDS011;7799;53.478;10.170;2023-05-15T08:05:39;1.00;;;1.00;;
15402;SDS011;7799;53.478;10.170;2023-05-15T08:08:09;1.10;;;1.00;;
15402;SDS011;7799;53.478;10.170;2023-05-15T08:10:35;0.93;;;0.90;;
15402;SDS011;7799;53.478;10.170;2023-05-15T08:13:02;1.63;;;1.23;;
15402;SDS011;7799;53.478;10.170;2023-05-15T08:15:29;1.10;;;1.00;;
15402;SDS011;7799;53.478;10.170;2023-05-15T08:17:57;0.83;;;0.83;;
15402;SDS011;7799;53.478;10.170;2023-05-15T08:20:23;0.97;;;0.90;;
15402;SDS011;7799;53.478;10.170;2023-05-15T08:22:50;1.20;;;1.10;;
15402;SDS011;7799;53.478;10.170;2023-05-15T08:25:17;1.37;;;1.27;;
15402;SDS011;7799;53.478;10.170;2023-05-15T08:27:43;1.20;;;1.10;;
15402;SDS011;7799;53.478;10.170;2023-05-15T08:30:10;1.47;;;1.37;;
15402;SDS011;7799;53.478;10.170;2023-05-15T08:32:38;1.70;;;1.23;;
15402;SDS011;7799;53.478;10.170;2023-05-15T08:35:07;1.33;;;1.17;;
15402;SDS011;7799;53.478;10.170;2023-05-15T08:37:33;1.00;;;1.00;;
15402;SDS011;7799;53.478;10.170;2023-05-15T08:40:00;1.17;;;0.82;;
15402;SDS011;7799;53.478;10.170;2023-05-15T08:42:31;1.07;;;0.97;;
15402;SDS011;7799;53.478;10.170;2023-05-15T08:44:58;0.80;;;0.80;;
15402;SDS011;7799;53.478;10.170;2023-05-15T08:47:26;0.93;;;0.93;;
15402;SDS011;7799;53.478;10.170;2023-05-15T08:49:55;0.80;;;0.80;;
15402;SDS011;7799;53.478;10.170;2023-05-15T08:52:26;1.17;;;1.08;;
15402;SDS011;7799;53.478;10.170;2023-05-15T08:54:53;1.30;;;1.20;;
15402;SDS011;7799;53.478;10.170;2023-05-15T08:57:20;1.40;;;1.00;;
15402;SDS011;7799;53.478;10.170;2023-05-15T08:59:46;0.98;;;0.98;;
15402;SDS011;7799;53.478;10.170;2023-05-15T09:02:14;1.10;;;1.00;;
15402;SDS011;7799;53.478;10.170;2023-05-15T09:04:41;1.52;;;1.20;;
15402;SDS011;7799;53.478;10.170;2023-05-15T09:07:07;0.98;;;0.98;;
15402;SDS011;7799;53.478;10.170;2023-05-15T09:09:36;0.90;;;0.90;;
15402;SDS011;7799;53.478;10.170;2023-05-15T09:12:04;1.30;;;1.20;;
15402;SDS011;7799;53.478;10.170;2023-05-15T09:14:32;0.82;;;0.70;;
15402;SDS011;7799;53.478;10.170;2023-05-15T09:16:59;1.20;;;1.10;;
15402;SDS011;7799;53.478;10.170;2023-05-15T09:19:26;1.08;;;1.08;;
15402;SDS011;7799;53.478;10.170;2023-05-15T09:21:53;1.00;;;0.95;;
15402;SDS011;7799;53.478;10.170;2023-05-15T09:24:20;1.15;;;1.05;;
15402;SDS011;7799;53.478;10.170;2023-05-15T09:27:00;1.05;;;0.95;;
15402;SDS011;7799;53.478;10.170;2023-05-15T09:29:28;0.98;;;0.98;;
15402;SDS011;7799;53.478;10.170;2023-05-15T09:31:55;1.02;;;0.95;;
15402;SDS011;7799;53.478;10.170;2023-05-15T09:34:27;0.90;;;0.90;;
15402;SDS011;7799;53.478;10.170;2023-05-15T09:36:55;0.98;;;0.98;;
15402;SDS011;7799;53.478;10.170;2023-05-15T09:39:21;0.90;;;0.90;;
15402;SDS011;7799;53.478;10.170;2023-05-15T09:41:48;1.20;;;1.10;;
15402;SDS011;7799;53.478;10.170;2023-05-15T09:44:23;1.70;;;1.15;;
15402;SDS011;7799;53.478;10.170;2023-05-15T09:46:50;1.25;;;1.17;;
15402;SDS011;7799;53.478;10.170;2023-05-15T09:49:17;2.03;;;1.23;;
15402;SDS011;7799;53.478;10.170;2023-05-15T09:51:44;2.00;;;1.25;;
15402;SDS011;7799;53.478;10.170;2023-05-15T09:54:16;1.35;;;0.98;;
15402;SDS011;7799;53.478;10.170;2023-05-15T09:56:43;1.35;;;0.98;;
15402;SDS011;7799;53.478;10.170;2023-05-15T09:59:11;1.30;;;1.00;;
15402;SDS011;7799;53.478;10.170;2023-05-15T10:01:42;0.93;;;0.93;;
15402;SDS011;7799;53.478;10.170;2023-05-15T10:04:10;0.90;;;0.90;;
15402;SDS011;7799;53.478;10.170;2023-05-15T10:06:38;0.80;;;0.80;;
15402;SDS011;7799;53.478;10.170;2023-05-15T10:09:06;1.20;;;1.13;;
15402;SDS011;7799;53.478;10.170;2023-05-15T10:11:33;1.10;;;1.10;;
15402;SDS011;7799;53.478;10.170;2023-05-15T10:14:01;1.02;;;1.00;;
15402;SDS011;7799;53.478;10.170;2023-05-15T10:16:28;0.90;;;0.90;;
15402;SDS011;7799;53.478;10.170;2023-05-15T10:18:56;0.90;;;0.90;;
15402;SDS011;7799;53.478;10.170;2023-05-15T10:21:24;1.02;;;1.02;;
15402;SDS011;7799;53.478;10.170;2023-05-15T10:23:52;0.90;;;0.90;;
15402;SDS011;7799;53.478;10.170;2023-05-15T10:26:19;1.15;;;1.15;;
15402;SDS011;7799;53.478;10.170;2023-05-15T10:28:49;1.20;;;0.90;;
15402;SDS011;7799;53.478;10.170;2023-05-15T10:31:17;1.05;;;1.00;;
15402;SDS011;7799;53.478;10.170;2023-05-15T10:33:44;0.82;;;0.82;;
15402;SDS011;7799;53.478;10.170;2023-05-15T10:36:12;1.00;;;0.90;;
15402;SDS011;7799;53.478;10.170;2023-05-15T10:38:40;1.27;;;1.10;;
15402;SDS011;7799;53.478;10.170;2023-05-15T10:41:07;1.30;;;1.20;;
15402;SDS011;7799;53.478;10.170;2023-05-15T10:43:35;1.10;;;0.95;;
15402;SDS011;7799;53.478;10.170;2023-05-15T10:46:02;1.10;;;1.00;;
15402;SDS011;7799;53.478;10.170;2023-05-15T10:48:29;1.20;;;1.10;;
15402;SDS011;7799;53.478;10.170;2023-05-15T10:50:58;1.13;;;0.90;;
15402;SDS011;7799;53.478;10.170;2023-05-15T10:53:26;1.35;;;1.15;;
15402;SDS011;7799;53.478;10.170;2023-05-15T10:55:53;1.08;;;1.08;;
15402;SDS011;7799;53.478;10.170;2023-05-15T10:58:21;1.13;;;1.02;;
15402;SDS011;7799;53.478;10.170;2023-05-15T11:00:48;1.00;;;1.00;;
15402;SDS011;7799;53.478;10.170;2023-05-15T11:03:15;0.90;;;0.90;;
15402;SDS011;7799;53.478;10.170;2023-05-15T11:06:07;0.90;;;0.90;;
15402;SDS011;7799;53.478;10.170;2023-05-15T11:08:37;1.02;;;1.02;;
15402;SDS011;7799;53.478;10.170;2023-05-15T11:11:03;0.90;;;0.90;;
15402;SDS011;7799;53.478;10.170;2023-05-15T11:19:23;1.08;;;1.08;;
15402;SDS011;7799;53.478;10.170;2023-05-15T11:21:57;1.00;;;1.00;;
15402;SDS011;7799;53.478;10.170;2023-05-15T11:24:29;1.27;;;1.17;;
15402;SDS011;7799;53.478;10.170;2023-05-15T11:26:58;1.90;;;1.00;;
15402;SDS011;7799;53.478;10.170;2023-05-15T11:29:25;0.90;;;0.90;;
15402;SDS011;7799;53.478;10.170;2023-05-15T11:31:51;1.10;;;1.00;;
15402;SDS011;7799;53.478;10.170;2023-05-15T11:34:27;1.10;;;1.00;;
15402;SDS011;7799;53.478;10.170;2023-05-15T11:36:55;1.27;;;1.17;;
15402;SDS011;7799;53.478;10.170;2023-05-15T11:39:23;0.93;;;0.90;;
15402;SDS011;7799;53.478;10.170;2023-05-15T11:41:52;1.10;;;1.10;;
15402;SDS011;7799;53.478;10.170;2023-05-15T11:44:19;0.90;;;0.90;;
15402;SDS011;7799;53.478;10.170;2023-05-15T11:46:47;1.17;;;1.10;;
15402;SDS011;7799;53.478;10.170;2023-05-15T11:49:14;1.10;;;1.00;;
15402;SDS011;7799;53.478;10.170;2023-05-15T11:51:41;1.20;;;1.10;;
15402;SDS011;7799;53.478;10.170;2023-05-15T11:54:08;1.47;;;1.37;;
15402;SDS011;7799;53.478;10.170;2023-05-15T11:56:39;1.30;;;1.20;;
15402;SDS011;7799;53.478;10.170;2023-05-15T11:59:09;1.20;;;1.10;;
15402;SDS011;7799;53.478;10.170;2023-05-15T12:01:38;1.00;;;1.00;;
15402;SDS011;7799;53.478;10.170;2023-05-15T12:04:10;1.30;;;1.20;;
15402;SDS011;7799;53.478;10.170;2023-05-15T12:06:37;1.00;;;1.00;;
15402;SDS011;7799;53.478;10.170;2023-05-15T12:09:04;0.80;;;0.80;;
15402;SDS011;7799;53.478;10.170;2023-05-15T12:11:31;0.93;;;0.93;;
15402;SDS011;7799;53.478;10.170;2023-05-15T12:13:58;1.03;;;1.03;;
15402;SDS011;7799;53.478;10.170;2023-05-15T12:16:26;1.47;;;0.87;;
15402;SDS011;7799;53.478;10.170;2023-05-15T12:18:55;0.70;;;0.70;;
15402;SDS011;7799;53.478;10.170;2023-05-15T12:21:22;1.27;;;1.00;;
15402;SDS011;7799;53.478;10.170;2023-05-15T12:23:49;0.77;;;0.77;;
15402;SDS011;7799;53.478;10.170;2023-05-15T12:26:17;0.90;;;0.70;;
15402;SDS011;7799;53.478;10.170;2023-05-15T12:28:44;0.77;;;0.77;;
15402;SDS011;7799;53.478;10.170;2023-05-15T12:31:10;1.00;;;1.00;;
15402;SDS011;7799;53.478;10.170;2023-05-15T12:33:38;1.13;;;1.03;;
15402;SDS011;7799;53.478;10.170;2023-05-15T12:36:06;1.63;;;0.80;;
15402;SDS011;7799;53.478;10.170;2023-05-15T12:38:34;0.63;;;0.63;;
15402;SDS011;7799;53.478;10.170;2023-05-15T12:41:01;0.70;;;0.70;;
15402;SDS011;7799;53.478;10.170;2023-05-15T12:43:29;0.70;;;0.70;;
15402;SDS011;7799;53.478;10.170;2023-05-15T12:45:56;0.90;;;0.90;;
15402;SDS011;7799;53.478;10.170;2023-05-15T12:48:28;0.90;;;0.90;;
15402;SDS011;7799;53.478;10.170;2023-05-15T12:51:02;0.90;;;0.90;;
15402;SDS011;7799;53.478;10.170;2023-05-15T12:53:30;0.77;;;0.77;;
15402;SDS011;7799;53.478;10.170;2023-05-15T12:55:58;0.90;;;0.90;;
15402;SDS011;7799;53.478;10.170;2023-05-15T12:58:24;1.07;;;1.03;;
15402;SDS011;7799;53.478;10.170;2023-05-15T13:00:51;1.50;;;1.37;;
15402;SDS011;7799;53.478;10.170;2023-05-15T13:03:19;0.93;;;0.93;;
15402;SDS011;7799;53.478;10.170;2023-05-15T13:05:46;1.20;;;1.07;;
15402;SDS011;7799;53.478;10.170;2023-05-15T13:08:15;1.10;;;1.00;;
15402;SDS011;7799;53.478;10.170;2023-05-15T13:10:43;1.10;;;1.07;;
15402;SDS011;7799;53.478;10.170;2023-05-15T13:13:09;1.27;;;1.20;;
15402;SDS011;7799;53.478;10.170;2023-05-15T13:15:37;1.13;;;1.03;;
15402;SDS011;7799;53.478;10.170;2023-05-15T13:18:05;1.30;;;1.20;;
15402;SDS011;7799;53.478;10.170;2023-05-15T13:20:32;1.37;;;1.27;;
15402;SDS011;7799;53.478;10.170;2023-05-15T13:23:01;1.50;;;1.40;;
15402;SDS011;7799;53.478;10.170;2023-05-15T13:25:29;1.60;;;1.50;;
15402;SDS011;7799;53.478;10.170;2023-05-15T13:27:58;2.30;;;2.10;;
15402;SDS011;7799;53.478;10.170;2023-05-15T13:30:26;2.17;;;1.97;;
15402;SDS011;7799;53.478;10.170;2023-05-15T13:32:53;3.27;;;2.23;;
15402;SDS011;7799;53.478;10.170;2023-05-15T13:35:19;2.77;;;2.57;;
15402;SDS011;7799;53.478;10.170;2023-05-15T13:37:46;2.10;;;1.90;;
15402;SDS011;7799;53.478;10.170;2023-05-15T13:40:13;2.00;;;1.80;;
15402;SDS011;7799;53.478;10.170;2023-05-15T13:42:42;2.20;;;2.00;;
15402;SDS011;7799;53.478;10.170;2023-05-15T13:45:10;2.27;;;1.87;;
15402;SDS011;7799;53.478;10.170;2023-05-15T13:47:37;2.23;;;2.10;;
15402;SDS011;7799;53.478;10.170;2023-05-15T13:50:05;2.30;;;2.10;;
15402;SDS011;7799;53.478;10.170;2023-05-15T13:52:32;2.60;;;2.17;;
15402;SDS011;7799;53.478;10.170;2023-05-15T13:54:59;2.47;;;2.27;;
15402;SDS011;7799;53.478;10.170;2023-05-15T13:57:25;2.70;;;2.50;;
15402;SDS011;7799;53.478;10.170;2023-05-15T13:59:53;3.53;;;3.00;;
15402;SDS011;7799;53.478;10.170;2023-05-15T14:02:20;3.30;;;3.00;;
15402;SDS011;7799;53.478;10.170;2023-05-15T14:04:50;3.50;;;3.20;;
15402;SDS011;7799;53.478;10.170;2023-05-15T14:07:17;2.83;;;2.63;;
15402;SDS011;7799;53.478;10.170;2023-05-15T14:09:43;3.10;;;2.87;;
15402;SDS011;7799;53.478;10.170;2023-05-15T14:12:10;3.10;;;2.90;;
15402;SDS011;7799;53.478;10.170;2023-05-15T14:14:37;3.20;;;2.90;;
15402;SDS011;7799;53.478;10.170;2023-05-15T14:17:05;4.20;;;3.80;;
15402;SDS011;7799;53.478;10.170;2023-05-15T14:19:31;4.27;;;3.80;;
15402;SDS011;7799;53.478;10.170;2023-05-15T14:21:58;3.97;;;3.67;;
15402;SDS011;7799;53.478;10.170;2023-05-15T14:24:25;4.17;;;3.77;;
15402;SDS011;7799;53.478;10.170;2023-05-15T14:26:52;4.30;;;3.90;;
15402;SDS011;7799;53.478;10.170;2023-05-15T14:29:19;3.83;;;3.53;;
15402;SDS011;7799;53.478;10.170;2023-05-15T14:31:45;3.90;;;3.57;;
15402;SDS011;7799;53.478;10.170;2023-05-15T14:34:14;4.30;;;4.00;;
15402;SDS011;7799;53.478;10.170;2023-05-15T14:36:40;4.20;;;3.90;;
15402;SDS011;7799;53.478;10.170;2023-05-15T14:39:07;4.47;;;4.07;;
15402;SDS011;7799;53.478;10.170;2023-05-15T14:41:34;4.33;;;3.90;;
15402;SDS011;7799;53.478;10.170;2023-05-15T14:44:00;5.07;;;4.67;;
15402;SDS011;7799;53.478;10.170;2023-05-15T14:46:27;6.57;;;6.07;;
15402;SDS011;7799;53.478;10.170;2023-05-15T14:48:53;6.00;;;5.50;;
15402;SDS011;7799;53.478;10.170;2023-05-15T14:51:21;7.30;;;6.70;;
15402;SDS011;7799;53.478;10.170;2023-05-15T14:53:49;6.27;;;5.77;;
15402;SDS011;7799;53.478;10.170;2023-05-15T14:56:16;7.20;;;6.50;;